Time;durP1;ratioP1;P1;durP2;ratioP2;P2;SDS_P1;SDS_P2;PMS_P1;PMS_P2;Temp;Humidity;BMP_temperature;BMP_pressure;BME280_temperature;BME280_humidity;BME280_pressure;Samples;Min_cycle;Max_cycle;Signal;HPM_P1;HPM_P2
2023/03/31 00:02:14;;;;;;;5.12;3.17;;;;;;;24.13;36.38;99277.25;4359655;32;33919;-69
2023/03/31 00:04:51;;;;;;;6.85;3.42;;;;;;;24.12;36.40;99278.31;4347148;32;34089;-69
2023/03/31 00:07:20;;;;;;;7.25;3.45;;;;;;;24.11;36.41;99268.50;4348250;32;34276;-69
2023/03/31 00:09:48;;;;;;;6.87;3.50;;;;;;;24.11;36.42;99270.41;4334795;32;34072;-68
2023/03/31 00:12:16;;;;;;;8.43;3.20;;;;;;;24.11;36.45;99268.50;4322437;32;32898;-69
2023/03/31 00:14:43;;;;;;;8.10;3.58;;;;;;;24.11;36.43;99273.12;4347583;32;33708;-69
2023/03/31 00:17:11;;;;;;;6.50;3.30;;;;;;;24.10;36.47;99274.16;4362585;32;34482;-69
2023/03/31 00:19:40;;;;;;;7.25;3.40;;;;;;;24.09;36.49;99267.88;4348813;32;33747;-69
2023/03/31 00:22:08;;;;;;;5.22;2.87;;;;;;;24.08;36.51;99274.41;4336879;32;34003;-69
2023/03/31 00:24:35;;;;;;;5.60;3.47;;;;;;;24.09;36.53;99267.88;4336627;32;34344;-69
2023/03/31 00:27:03;;;;;;;6.95;3.00;;;;;;;24.08;36.56;99266.25;4351424;32;33137;-69
2023/03/31 00:29:32;;;;;;;6.70;3.35;;;;;;;24.06;36.59;99265.69;4339214;32;32685;-70
2023/03/31 00:32:00;;;;;;;5.07;3.27;;;;;;;24.06;36.56;99262.09;4339589;32;32779;-70
2023/03/31 00:34:28;;;;;;;5.97;3.42;;;;;;;24.07;36.55;99263.78;4363548;32;34153;-70
2023/03/31 00:37:01;;;;;;;6.35;3.45;;;;;;;24.04;36.57;99259.63;4363627;32;32901;-69
2023/03/31 00:39:34;;;;;;;6.50;2.95;;;;;;;24.04;36.58;99256.91;4364241;32;34370;-69
2023/03/31 00:42:02;;;;;;;6.15;3.08;;;;;;;24.03;36.60;99255.25;4339644;32;33096;-69
2023/03/31 00:44:33;;;;;;;5.78;2.95;;;;;;;24.03;36.61;99255.25;4377255;32;34194;-69
2023/03/31 00:47:03;;;;;;;7.30;2.90;;;;;;;24.03;36.62;99251.69;4363764;32;33627;-68
2023/03/31 00:49:32;;;;;;;;;;;;;;;24.02;36.60;99253.59;4364123;32;34123;-69
2023/03/31 00:52:36;;;;;;;5.40;3.03;;;;;;;24.11;36.39;99249.41;4363564;32;34246;-69
2023/03/31 00:55:07;;;;;;;7.15;3.30;;;;;;;24.02;36.55;99250.06;4324006;32;33432;-69
2023/03/31 00:57:38;;;;;;;5.93;2.65;;;;;;;24.00;36.64;99252.19;4327034;32;32548;-69
2023/03/31 01:00:14;;;;;;;5.95;3.03;;;;;;;23.99;36.67;99253.25;4339673;32;32993;-69
2023/03/31 01:02:45;;;;;;;5.62;3.10;;;;;;;23.96;36.71;99249.09;4364220;32;33332;-69
2023/03/31 01:05:13;;;;;;;5.87;3.00;;;;;;;23.96;36.69;99246.37;4352117;32;34098;-69
2023/03/31 01:07:42;;;;;;;5.90;2.85;;;;;;;23.96;36.69;99243.66;4351359;32;33053;-69
2023/03/31 01:10:10;;;;;;;6.25;3.10;;;;;;;23.96;36.70;99251.00;4339026;32;32843;-68
2023/03/31 01:12:39;;;;;;;5.62;2.92;;;;;;;23.97;36.71;99245.34;4363469;32;34027;-68
2023/03/31 01:15:07;;;;;;;6.22;3.15;;;;;;;23.95;36.75;99228.38;4363586;32;33820;-68
2023/03/31 01:17:35;;;;;;;8.15;3.25;;;;;;;23.95;36.76;99242.00;4363359;32;33567;-69
2023/03/31 01:20:45;;;;;;;4.95;3.05;;;;;;;23.93;36.78;99234.09;4339347;32;34020;-69
2023/03/31 01:24:01;;;;;;;6.63;3.20;;;;;;;23.96;36.79;99234.66;4311246;32;33160;-69
2023/03/31 01:26:41;;;;;;;4.87;2.80;;;;;;;23.96;36.76;99232.75;4364861;32;33904;-69
2023/03/31 01:29:39;;;;;;;5.50;2.70;;;;;;;23.96;36.82;99248.28;4348247;32;33826;-69
2023/03/31 01:32:31;;;;;;;6.57;3.37;;;;;;;23.93;36.82;99238.72;4350735;32;34259;-69
2023/03/31 01:35:07;;;;;;;4.78;2.97;;;;;;;23.94;36.90;99248.53;4361962;32;33601;-69
2023/03/31 01:37:50;;;;;;;7.05;3.53;;;;;;;23.91;36.98;99249.00;4348565;32;34818;-69
2023/03/31 01:40:36;;;;;;;6.68;3.65;;;;;;;23.89;36.97;99241.09;4348413;32;32446;-69
2023/03/31 01:43:13;;;;;;;6.40;3.08;;;;;;;23.88;36.95;99235.88;4348389;32;32715;-69
2023/03/31 01:45:53;;;;;;;5.05;3.05;;;;;;;23.89;36.96;99240.25;4361928;32;34725;-69
2023/03/31 01:48:47;;;;;;;5.57;3.03;;;;;;;23.90;37.00;99244.63;4348553;32;34927;-69
2023/03/31 01:51:22;;;;;;;5.18;2.85;;;;;;;23.88;37.00;99250.34;4340977;32;33218;-68
2023/03/31 01:53:54;;;;;;;4.60;2.50;;;;;;;23.86;37.10;99246.19;4336515;32;33985;-69
2023/03/31 01:56:27;;;;;;;5.60;2.65;;;;;;;23.86;37.11;99246.19;4348229;32;33890;-69
2023/03/31 01:59:01;;;;;;;5.53;3.22;;;;;;;23.86;37.09;99249.72;4348313;32;34851;-69
2023/03/31 02:01:34;;;;;;;5.32;2.87;;;;;;;23.84;37.14;99237.44;4348354;32;33418;-69
2023/03/31 02:04:13;;;;;;;5.55;3.05;;;;;;;23.85;37.19;99247.25;4336382;32;33852;-69
2023/03/31 02:06:44;;;;;;;7.62;2.70;;;;;;;23.86;37.17;99244.28;4348446;32;34870;-69
2023/03/31 02:09:15;;;;;;;4.90;3.00;;;;;;;23.84;37.20;99241.00;4348307;32;33971;-70
2023/03/31 02:11:42;;;;;;;6.35;2.90;;;;;;;23.85;37.25;99239.09;4348240;32;33658;-69
2023/03/31 02:14:11;;;;;;;5.20;2.85;;;;;;;23.83;37.21;99247.50;4323916;32;33659;-69
2023/03/31 02:16:40;;;;;;;5.95;2.87;;;;;;;23.83;37.28;99242.06;4323915;32;34046;-68
2023/03/31 02:19:08;;;;;;;5.07;2.83;;;;;;;23.84;37.31;99241.00;4336506;32;33329;-69
2023/03/31 02:21:37;;;;;;;5.40;3.00;;;;;;;23.84;37.28;99232.00;4348310;32;33221;-69
2023/03/31 02:24:06;;;;;;;6.07;2.90;;;;;;;23.82;37.33;99237.66;4336017;32;33665;-69
2023/03/31 02:26:36;;;;;;;6.77;3.00;;;;;;;23.83;37.35;99228.44;4359701;32;33898;-69
2023/03/31 02:29:04;;;;;;;6.72;2.70;;;;;;;23.83;37.32;99224.91;4363120;32;34155;-69
2023/03/31 02:31:56;;;;;;;4.55;2.58;;;;;;;23.83;37.33;99238.50;4363072;32;33191;-69
2023/03/31 02:34:25;;;;;;;4.95;2.70;;;;;;;23.82;37.34;99226.75;4376423;32;33534;-69
2023/03/31 02:36:53;;;;;;;7.00;3.40;;;;;;;23.82;37.35;99225.94;4338378;32;33305;-69
2023/03/31 02:39:24;;;;;;;5.22;2.70;;;;;;;23.81;37.36;99218.84;4376369;32;33688;-69
2023/03/31 02:41:52;;;;;;;5.35;2.83;;;;;;;23.81;37.40;99221.56;4362985;32;33391;-69
2023/03/31 02:44:20;;;;;;;4.57;2.60;;;;;;;23.81;37.44;99216.94;4350656;32;33956;-69
2023/03/31 02:46:49;;;;;;;5.00;3.03;;;;;;;23.82;37.42;99223.22;4350508;32;33875;-69
2023/03/31 02:49:16;;;;;;;5.20;2.80;;;;;;;23.82;37.41;99223.22;4350981;32;34122;-69
2023/03/31 02:52:10;;;;;;;4.50;2.42;;;;;;;23.82;37.39;99234.13;4362732;32;32348;-69
2023/03/31 02:54:51;;;;;;;5.20;2.53;;;;;;;23.82;37.40;99213.16;4376707;32;33849;-70
2023/03/31 02:58:17;;;;;;;3.95;2.42;;;;;;;23.79;37.42;99213.66;4350849;32;33484;-69
2023/03/31 03:00:58;;;;;;;4.97;2.70;;;;;;;23.81;37.41;99216.13;4314995;33;34711;-69
2023/03/31 03:03:29;;;;;;;6.25;2.78;;;;;;;23.79;37.42;99232.72;4303495;33;33189;-69
2023/03/31 03:06:04;;;;;;;4.32;2.28;;;;;;;23.75;37.43;99228.81;4345148;32;33763;-69
2023/03/31 03:08:54;;;;;;;5.68;2.55;;;;;;;23.76;37.41;99225.03;4350570;32;32965;-69
2023/03/31 03:11:31;;;;;;;4.47;2.67;;;;;;;23.74;37.42;99221.72;4362818;32;34026;-69
2023/03/31 03:14:00;;;;;;;4.87;2.87;;;;;;;23.74;37.43;99220.91;4350160;32;32489;-69
2023/03/31 03:16:35;;;;;;;4.60;2.87;;;;;;;23.74;37.47;99213.56;4362585;32;34628;-69
2023/03/31 03:19:04;;;;;;;4.55;2.40;;;;;;;23.73;37.44;99216.50;4363240;32;33878;-69
2023/03/31 03:21:32;;;;;;;5.37;2.85;;;;;;;23.74;37.35;99213.56;4362632;32;34230;-69
2023/03/31 03:24:00;;;;;;;4.45;2.37;;;;;;;23.74;37.42;99221.72;4350418;32;32515;-69
2023/03/31 03:26:27;;;;;;;5.90;2.58;;;;;;;23.74;37.43;99212.72;4347505;32;34639;-68
2023/03/31 03:28:56;;;;;;;5.60;2.75;;;;;;;23.73;37.43;99211.88;4335733;32;34043;-69
2023/03/31 03:31:24;;;;;;;4.03;2.50;;;;;;;23.73;37.42;99217.31;4347637;32;34190;-69
2023/03/31 03:33:52;;;;;;;4.27;2.50;;;;;;;23.74;37.42;99210.00;4350070;32;33647;-69
2023/03/31 03:36:21;;;;;;;4.15;2.20;;;;;;;23.74;37.43;99208.09;4359506;32;32284;-69
2023/03/31 03:38:49;;;;;;;5.12;2.45;;;;;;;23.73;37.42;99206.44;4353134;32;33177;-69
2023/03/31 03:41:17;;;;;;;5.97;2.53;;;;;;;23.73;37.45;99203.69;4355125;32;34599;-68
2023/03/31 03:43:45;;;;;;;6.00;2.70;;;;;;;23.73;37.44;99202.88;4329563;32;32361;-69
2023/03/31 03:46:12;;;;;;;6.35;2.60;;;;;;;23.73;37.43;99194.72;4353841;32;32993;-69
2023/03/31 03:48:40;;;;;;;4.47;2.20;;;;;;;23.73;37.44;99200.16;4355096;32;34434;-69
2023/03/31 03:51:07;;;;;;;4.62;2.50;;;;;;;23.72;37.44;99206.69;4369093;32;34135;-69
2023/03/31 03:53:35;;;;;;;4.18;2.35;;;;;;;23.72;37.42;99210.22;4346686;32;32649;-68
2023/03/31 03:56:03;;;;;;;6.60;2.70;;;;;;;23.72;37.42;99214.84;4366351;32;33943;-69
2023/03/31 03:58:31;;;;;;;5.80;2.87;;;;;;;23.72;37.45;99209.41;4349279;32;32665;-69
2023/03/31 04:00:59;;;;;;;6.00;2.85;;;;;;;23.72;37.34;99212.12;4355772;32;34568;-69
2023/03/31 04:03:27;;;;;;;5.70;2.87;;;;;;;23.71;37.11;99203.13;4338277;32;32393;-69
2023/03/31 04:05:55;;;;;;;4.97;2.60;;;;;;;23.70;36.89;99201.50;4348296;32;34711;-70
2023/03/31 04:08:23;;;;;;;5.12;2.75;;;;;;;23.69;36.77;99205.28;4341318;32;33692;-69
2023/03/31 04:10:51;;;;;;;5.90;2.60;;;;;;;23.67;36.69;99180.16;4336757;32;34380;-71
2023/03/31 04:13:19;;;;;;;4.62;2.75;;;;;;;23.65;36.62;99180.44;4348906;32;33694;-70
2023/03/31 04:15:47;;;;;;;5.65;2.87;;;;;;;23.63;36.58;99171.63;4337835;32;34645;-70
2023/03/31 04:18:21;;;;;;;4.15;2.50;;;;;;;23.63;36.50;99179.78;4345729;32;33889;-71
2023/03/31 04:21:02;;;;;;;6.72;3.22;;;;;;;23.62;36.48;99175.41;4338574;32;34146;-71
2023/03/31 04:23:41;;;;;;;11.65;2.83;;;;;;;23.64;36.47;99181.50;4351910;32;33252;-69
2023/03/31 04:26:09;;;;;;;10.35;3.03;;;;;;;23.63;36.47;99177.06;4355454;32;33686;-70
2023/03/31 04:28:37;;;;;;;9.38;3.40;;;;;;;23.61;36.47;99184.66;4335822;32;33939;-70
2023/03/31 04:31:05;;;;;;;10.52;2.90;;;;;;;23.61;36.47;99192.84;4347378;32;33794;-69
2023/03/31 04:33:37;;;;;;;11.43;3.17;;;;;;;23.60;36.43;99193.09;4347394;32;33264;-69
2023/03/31 04:36:16;;;;;;;8.32;3.50;;;;;;;23.59;36.39;99194.13;4341883;32;33887;-69
2023/03/31 04:38:45;;;;;;;5.47;2.70;;;;;;;23.59;36.34;99196.84;4360128;32;33854;-69
2023/03/31 04:41:13;;;;;;;10.73;2.90;;;;;;;23.58;36.32;99192.50;4349724;32;33190;-72
2023/03/31 04:43:41;;;;;;;9.80;3.20;;;;;;;23.57;36.29;99186.22;4361623;32;34024;-69
2023/03/31 04:46:08;;;;;;;8.18;2.95;;;;;;;23.57;36.30;99190.84;4336996;32;32872;-70
2023/03/31 04:48:37;;;;;;;8.23;2.90;;;;;;;23.56;36.31;99183.75;4349796;32;34704;-69
2023/03/31 04:51:04;;;;;;;7.03;3.08;;;;;;;23.55;36.31;99174.75;4359285;32;35412;-71
2023/03/31 04:53:33;;;;;;;7.18;3.28;;;;;;;23.55;36.32;99182.91;4343297;32;32426;-70
2023/03/31 04:56:02;;;;;;;6.47;2.50;;;;;;;23.55;36.30;99169.31;4376804;32;34179;-73
2023/03/31 04:58:30;;;;;;;5.47;2.85;;;;;;;23.54;36.31;99170.34;4351581;32;34256;-72
2023/03/31 05:00:58;;;;;;;6.12;2.58;;;;;;;23.54;36.30;99170.34;4351390;32;33678;-70
2023/03/31 05:03:25;;;;;;;5.47;2.85;;;;;;;23.53;36.28;99171.44;4345530;32;33529;-70
2023/03/31 05:05:53;;;;;;;8.02;3.00;;;;;;;23.53;36.28;99170.59;4336529;32;33168;-70
2023/03/31 05:08:21;;;;;;;4.72;2.37;;;;;;;23.52;36.28;99168.97;4356711;32;33870;-70
2023/03/31 05:10:49;;;;;;;6.50;2.87;;;;;;;23.53;36.27;99162.44;4354365;32;34794;-72
2023/03/31 05:13:16;;;;;;;5.85;2.20;;;;;;;23.52;36.26;99161.59;4360854;32;34493;-70
2023/03/31 05:15:44;;;;;;;5.75;2.62;;;;;;;23.52;36.25;99161.59;4351044;32;32693;-70
2023/03/31 05:18:12;;;;;;;6.53;2.83;;;;;;;23.51;36.27;99154.53;4363668;32;34666;-70
2023/03/31 05:20:39;;;;;;;7.95;2.65;;;;;;;23.52;36.25;99158.06;4351005;32;33179;-70
2023/03/31 05:23:07;;;;;;;7.70;2.80;;;;;;;23.50;36.25;99155.59;4363767;32;33543;-69
2023/03/31 05:25:35;;;;;;;7.47;2.78;;;;;;;23.50;36.24;99166.50;4348278;32;33804;-70
2023/03/31 05:28:04;;;;;;;5.82;2.50;;;;;;;23.50;36.23;99154.75;4336489;32;34957;-70
2023/03/31 05:30:32;;;;;;;5.85;2.87;;;;;;;23.49;36.22;99153.09;4324427;32;34493;-69
2023/03/31 05:33:00;;;;;;;5.15;2.67;;;;;;;23.48;36.21;99146.81;4336596;32;33699;-69
2023/03/31 05:35:28;;;;;;;5.15;2.47;;;;;;;23.48;36.21;99149.53;4336011;32;33046;-70
2023/03/31 05:37:56;;;;;;;6.87;2.60;;;;;;;23.48;36.20;99149.53;4348596;32;34001;-69
2023/03/31 05:40:24;;;;;;;7.07;2.55;;;;;;;23.48;36.19;99155.00;4336192;32;33056;-70
2023/03/31 05:42:52;;;;;;;6.82;2.42;;;;;;;23.48;36.19;99165.06;4336050;32;32894;-69
2023/03/31 05:45:20;;;;;;;5.82;3.17;;;;;;;23.47;36.18;99164.25;4348387;32;33420;-69
2023/03/31 05:47:48;;;;;;;6.97;2.42;;;;;;;23.48;36.18;99155.00;4348477;32;33495;-73
2023/03/31 05:50:15;;;;;;;5.03;2.60;;;;;;;23.47;36.18;99144.34;4336127;32;33652;-70
2023/03/31 05:52:43;;;;;;;5.32;2.55;;;;;;;23.47;36.16;99150.62;4336469;32;32910;-71
2023/03/31 05:55:12;;;;;;;5.25;2.33;;;;;;;23.47;36.16;99152.53;4336250;32;33621;-70
2023/03/31 05:57:39;;;;;;;4.87;2.60;;;;;;;23.47;36.15;99157.97;4336216;32;33088;-69
2023/03/31 06:00:09;;;;;;;5.37;2.72;;;;;;;23.46;36.15;99148.97;4336171;32;34167;-69
2023/03/31 06:02:38;;;;;;;4.78;2.37;;;;;;;23.45;36.13;99150.03;4334336;32;33382;-70
2023/03/31 06:05:06;;;;;;;4.18;2.53;;;;;;;23.46;36.14;99148.16;4360713;32;33860;-70
2023/03/31 06:07:34;;;;;;;5.05;2.67;;;;;;;23.46;36.12;99148.97;4336099;32;33922;-69
2023/03/31 06:10:02;;;;;;;4.43;2.42;;;;;;;23.45;36.12;99150.03;4361435;32;34209;-72
2023/03/31 06:12:49;;;;;;;5.93;2.55;;;;;;;23.45;36.10;99144.56;4361320;32;33948;-72
2023/03/31 06:15:16;;;;;;;5.03;2.22;;;;;;;23.45;36.12;99146.47;4347994;32;33750;-70
2023/03/31 06:17:44;;;;;;;4.97;2.42;;;;;;;23.44;36.12;99145.66;4336495;32;33515;-71
2023/03/31 06:20:12;;;;;;;4.90;2.47;;;;;;;23.42;36.11;99132.28;4336016;32;32908;-70
2023/03/31 06:22:55;;;;;;;7.12;2.90;;;;;;;23.42;36.10;99128.75;4337331;32;32886;-72
2023/03/31 06:25:22;;;;;;;5.47;2.72;;;;;;;23.44;36.09;99132.03;4348091;32;34374;-72
2023/03/31 06:27:50;;;;;;;5.78;2.62;;;;;;;23.41;36.10;99130.66;4361543;32;33885;-72
2023/03/31 06:30:18;;;;;;;5.20;2.78;;;;;;;23.42;36.08;99131.47;4336232;32;33701;-71
2023/03/31 06:32:45;;;;;;;5.47;2.60;;;;;;;23.42;36.08;99131.47;4336023;32;32813;-72
2023/03/31 06:35:13;;;;;;;5.82;2.30;;;;;;;23.42;36.08;99128.75;4348038;32;33839;-71
2023/03/31 06:37:41;;;;;;;4.60;2.50;;;;;;;23.41;36.05;99129.81;4336054;32;33928;-72
2023/03/31 06:40:09;;;;;;;4.60;2.28;;;;;;;23.42;36.02;99129.56;4361558;32;34222;-71
2023/03/31 06:42:36;;;;;;;5.43;2.65;;;;;;;23.42;36.04;99126.84;4335674;32;33564;-71
2023/03/31 06:45:06;;;;;;;;;;;;;;;23.45;36.07;99135.59;4324819;32;33933;-73
2023/03/31 06:47:36;;;;;;;5.53;2.33;;;;;;;23.54;35.95;99134.94;4361665;32;35065;-69
2023/03/31 06:50:05;;;;;;;4.75;2.35;;;;;;;23.50;36.13;99143.84;4335949;32;33129;-70
2023/03/31 06:52:33;;;;;;;5.45;2.42;;;;;;;23.47;36.21;99145.19;4335619;32;32418;-70
2023/03/31 06:55:01;;;;;;;10.70;2.80;;;;;;;23.48;36.24;99151.44;4323643;32;32695;-70
2023/03/31 06:57:32;;;;;;;4.40;2.22;;;;;;;23.48;36.22;99144.09;4324017;32;33896;-69
2023/03/31 07:00:00;;;;;;;5.10;2.47;;;;;;;23.50;36.24;99152.00;4346439;32;34766;-69
2023/03/31 07:02:27;;;;;;;4.65;2.53;;;;;;;23.49;36.26;99143.03;4336058;32;34322;-69
2023/03/31 07:04:56;;;;;;;4.93;2.25;;;;;;;23.52;36.22;99142.56;4335736;32;33655;-71
2023/03/31 07:07:23;;;;;;;5.40;2.28;;;;;;;23.53;36.20;99141.47;4335750;32;33983;-71
2023/03/31 07:09:51;;;;;;;6.03;2.58;;;;;;;23.54;36.21;99136.84;4368467;32;34037;-69
2023/03/31 07:12:19;;;;;;;5.43;2.20;;;;;;;23.55;36.20;99136.62;4337947;32;33809;-69
2023/03/31 07:14:47;;;;;;;5.35;2.35;;;;;;;23.56;36.18;99141.00;4350278;32;33839;-71
2023/03/31 07:17:14;;;;;;;3.90;2.10;;;;;;;23.58;36.11;99132.56;4357548;32;33968;-71
2023/03/31 07:19:46;;;;;;;4.45;2.28;;;;;;;23.59;36.07;99136.94;4351729;32;33809;-70
2023/03/31 07:22:14;;;;;;;5.35;2.53;;;;;;;23.61;36.05;99134.81;4361530;32;33173;-70
2023/03/31 07:24:42;;;;;;;3.50;2.00;;;;;;;23.62;36.08;99125.56;4361308;32;34572;-71
2023/03/31 07:27:10;;;;;;;5.85;2.30;;;;;;;23.62;36.14;99120.94;4362499;32;34736;-69
2023/03/31 07:29:38;;;;;;;4.60;2.30;;;;;;;23.63;36.18;99122.59;4350053;32;32830;-70
2023/03/31 07:32:05;;;;;;;4.90;2.25;;;;;;;23.63;36.20;99117.16;4350103;32;33581;-69
2023/03/31 07:34:34;;;;;;;4.72;2.10;;;;;;;23.66;36.22;99105.81;4347605;32;33824;-71
2023/03/31 07:37:04;;;;;;;6.03;2.55;;;;;;;23.66;36.28;99105.81;4335938;32;33734;-70
2023/03/31 07:39:32;;;;;;;6.45;2.58;;;;;;;23.67;36.33;99107.47;4347483;32;34731;-70
2023/03/31 07:42:00;;;;;;;7.12;2.42;;;;;;;23.68;36.41;99100.09;4347570;32;33645;-70
2023/03/31 07:44:27;;;;;;;8.73;2.53;;;;;;;23.70;36.33;99094.44;4361139;32;33952;-69
2023/03/31 07:46:56;;;;;;;8.25;2.37;;;;;;;23.69;36.23;99096.34;4335239;32;32438;-69
2023/03/31 07:49:24;;;;;;;6.20;2.83;;;;;;;23.70;36.24;99100.72;4347574;32;34519;-68
2023/03/31 07:51:51;;;;;;;5.95;2.70;;;;;;;23.71;36.25;99101.53;4335465;32;33417;-69
2023/03/31 07:54:19;;;;;;;5.28;2.58;;;;;;;23.71;36.21;99104.25;4335010;32;32909;-69
2023/03/31 07:56:47;;;;;;;7.47;3.20;;;;;;;23.70;36.23;99106.16;4344570;32;33007;-75
2023/03/31 07:59:15;;;;;;;5.57;2.90;;;;;;;23.70;36.20;99100.72;4363124;32;33784;-75
2023/03/31 08:01:43;;;;;;;8.32;3.25;;;;;;;23.70;36.21;99103.44;4345597;32;33862;-71
2023/03/31 08:04:11;;;;;;;8.60;2.80;;;;;;;23.71;36.23;99093.34;4323687;32;32956;-70
2023/03/31 08:06:39;;;;;;;4.75;2.40;;;;;;;23.69;36.23;99090.88;4321749;32;34168;-73
2023/03/31 08:09:06;;;;;;;8.30;3.03;;;;;;;23.69;36.17;99085.44;4366958;32;35730;-71
2023/03/31 08:11:35;;;;;;;7.32;2.92;;;;;;;23.70;36.11;99078.09;4349298;32;32446;-74
2023/03/31 08:14:03;;;;;;;6.80;2.80;;;;;;;23.70;36.19;99070.75;4353032;32;33807;-70
2023/03/31 08:16:31;;;;;;;5.57;2.47;;;;;;;23.70;36.26;99067.19;4334632;32;33881;-77
2023/03/31 08:19:00;;;;;;;6.90;2.33;;;;;;;23.71;36.25;99069.66;4346115;32;33402;-70
2023/03/31 08:21:28;;;;;;;4.87;2.20;;;;;;;23.72;36.27;99062.31;4359648;32;33564;-77
2023/03/31 08:23:56;;;;;;;5.78;2.35;;;;;;;23.72;36.29;99057.69;4325383;32;33543;-71
2023/03/31 08:26:24;;;;;;;5.18;2.47;;;;;;;23.74;36.32;99063.75;4340795;32;33282;-73
2023/03/31 08:28:52;;;;;;;5.75;2.55;;;;;;;23.76;36.38;99058.84;4334986;32;34127;-73
2023/03/31 08:31:20;;;;;;;4.65;2.10;;;;;;;23.77;36.40;99046.06;4336428;32;34285;-73
2023/03/31 08:33:48;;;;;;;6.30;2.30;;;;;;;23.79;36.44;99041.22;4346821;32;35214;-75
2023/03/31 08:36:15;;;;;;;4.60;2.12;;;;;;;23.81;36.48;99041.78;4356353;32;34072;-74
2023/03/31 08:38:46;;;;;;;4.45;1.90;;;;;;;23.81;36.51;99034.41;4356163;32;34031;-72
2023/03/31 08:41:29;;;;;;;6.25;2.35;;;;;;;23.83;36.54;99036.91;4362460;32;34170;-73
2023/03/31 08:43:57;;;;;;;4.15;2.05;;;;;;;23.84;36.59;99023.03;4336269;32;32865;-74
2023/03/31 08:46:25;;;;;;;4.47;2.10;;;;;;;23.85;36.61;99023.88;4337968;32;32852;-71
2023/03/31 08:48:56;;;;;;;5.97;2.30;;;;;;;23.86;36.66;99012.72;4350073;32;34226;-72
2023/03/31 08:51:28;;;;;;;4.82;2.08;;;;;;;23.87;36.72;99013.53;4339300;32;33610;-72
2023/03/31 08:54:06;;;;;;;4.93;2.00;;;;;;;23.88;36.77;99005.13;4344912;32;34662;-71
2023/03/31 08:56:37;;;;;;;4.82;2.10;;;;;;;23.90;36.81;99000.25;4346535;32;33633;-70
2023/03/31 08:59:06;;;;;;;4.28;2.22;;;;;;;23.91;36.84;98996.44;4342811;32;33730;-70
2023/03/31 09:02:13;;;;;;;4.50;1.90;;;;;;;23.92;36.89;98991.81;4338304;32;33693;-70
2023/03/31 09:04:41;;;;;;;5.35;2.15;;;;;;;23.95;36.94;98987.78;4328713;32;33756;-71
2023/03/31 09:07:30;;;;;;;4.57;1.92;;;;;;;23.96;36.92;98990.25;4376357;32;34680;-74
2023/03/31 09:10:10;;;;;;;3.55;1.87;;;;;;;23.97;37.00;98981.00;4348372;32;33333;-70
2023/03/31 09:12:44;;;;;;;3.35;1.90;;;;;;;23.98;36.95;98979.94;4362300;32;33567;-69
2023/03/31 09:15:39;;;;;;;3.80;1.80;;;;;;;23.99;36.99;98987.03;4361672;32;33490;-73
2023/03/31 09:18:34;;;;;;;6.65;2.17;;;;;;;24.01;36.99;98975.88;4328202;32;34795;-73
2023/03/31 09:21:20;;;;;;;3.97;2.05;;;;;;;24.01;37.02;98981.31;4338320;32;33159;-70
2023/03/31 09:24:12;;;;;;;4.87;2.05;;;;;;;24.03;37.00;98974.56;4348792;32;33234;-69
2023/03/31 09:26:43;;;;;;;7.22;2.20;;;;;;;24.02;37.08;98974.81;4335609;32;32690;-72
2023/03/31 09:29:30;;;;;;;;;;;;;;;24.00;37.09;98964.16;4346670;32;33588;-70
2023/03/31 09:32:34;;;;;;;6.80;2.10;;;;;;;24.10;36.81;98961.56;4343601;32;33138;-73
2023/03/31 09:35:18;;;;;;;3.75;1.73;;;;;;;24.03;36.91;98957.37;4342510;32;34430;-74
2023/03/31 09:37:47;;;;;;;4.65;2.20;;;;;;;24.00;36.83;98961.41;4336529;32;32552;-70
2023/03/31 09:40:23;;;;;;;6.50;2.58;;;;;;;23.97;36.85;98951.03;4324152;32;32976;-71
2023/03/31 09:42:55;;;;;;;3.90;2.28;;;;;;;23.96;36.86;98937.66;4324206;32;33036;-74
2023/03/31 09:45:23;;;;;;;6.22;1.85;;;;;;;23.95;36.84;98941.47;4334426;32;33767;-70
2023/03/31 09:47:54;;;;;;;4.00;1.95;;;;;;;23.95;36.78;98945.00;4334620;32;33865;-78
2023/03/31 09:50:22;;;;;;;3.92;1.90;;;;;;;23.93;36.71;98942.53;4343360;32;34149;-72
2023/03/31 09:52:54;;;;;;;4.65;1.80;;;;;;;23.93;36.68;98936.28;4348747;32;33679;-69
2023/03/31 09:55:28;;;;;;;;;;;;;;;23.93;36.62;98919.91;4336575;32;33607;-73
2023/03/31 09:58:07;;;;;;;6.25;2.08;;;;;;;24.01;36.43;98937.72;4363144;32;32877;-70
2023/03/31 10:00:34;;;;;;;5.65;1.90;;;;;;;23.93;36.47;98925.38;4344248;32;32628;-70
2023/03/31 10:03:06;;;;;;;3.05;1.90;;;;;;;23.90;36.52;98912.25;4348581;32;34080;-69
2023/03/31 10:05:50;;;;;;;5.70;1.90;;;;;;;23.88;36.51;98912.50;4341472;32;33389;-72
2023/03/31 10:08:31;;;;;;;3.53;1.83;;;;;;;23.88;36.51;98909.78;4352175;32;33912;-73
2023/03/31 10:11:02;;;;;;;5.97;2.05;;;;;;;23.88;36.45;98912.50;4338881;32;34082;-70
2023/03/31 10:13:57;;;;;;;4.95;1.80;;;;;;;23.86;36.47;98911.09;4369398;32;34154;-72
2023/03/31 10:16:28;;;;;;;5.53;1.67;;;;;;;23.88;36.43;98892.59;4351841;32;33524;-72
2023/03/31 10:19:17;;;;;;;4.47;1.92;;;;;;;23.83;36.46;98889.81;4353184;32;32611;-72
2023/03/31 10:21:46;;;;;;;7.55;2.08;;;;;;;23.84;36.41;98889.56;4335910;32;32895;-75
2023/03/31 10:24:18;;;;;;;3.78;1.83;;;;;;;23.83;36.37;98889.81;4335407;32;32886;-70
2023/03/31 10:26:47;;;;;;;5.25;2.12;;;;;;;23.82;36.35;98893.59;4356275;32;33671;-72
2023/03/31 10:29:20;;;;;;;4.70;2.15;;;;;;;23.81;36.28;98883.78;4337999;32;33513;-71
2023/03/31 10:31:48;;;;;;;3.58;1.90;;;;;;;23.81;36.22;98870.16;4348749;32;33590;-72
2023/03/31 10:34:16;;;;;;;3.72;1.95;;;;;;;23.80;36.14;98872.06;4335386;32;33119;-71
2023/03/31 10:36:46;;;;;;;4.55;1.92;;;;;;;23.78;36.11;98874.22;4335714;32;34371;-71
2023/03/31 10:39:14;;;;;;;3.53;1.87;;;;;;;23.77;36.08;98867.09;4347274;32;33720;-73
2023/03/31 10:41:42;;;;;;;2.62;1.60;;;;;;;23.77;36.04;98861.66;4335701;32;33738;-73
2023/03/31 10:44:29;;;;;;;3.30;1.95;;;;;;;23.76;36.03;98870.91;4324807;32;33760;-73
2023/03/31 10:47:03;;;;;;;3.72;1.50;;;;;;;23.77;36.00;98869.81;4341473;32;34612;-69
2023/03/31 10:49:37;;;;;;;4.20;2.17;;;;;;;23.75;36.00;98849.38;4347643;32;33609;-70
2023/03/31 10:52:26;;;;;;;4.55;1.90;;;;;;;23.73;35.98;98857.78;4336637;32;34642;-71
2023/03/31 10:55:00;;;;;;;5.75;1.85;;;;;;;23.76;36.01;98859.19;4336242;32;33770;-70
2023/03/31 10:57:37;;;;;;;2.85;1.50;;;;;;;23.74;36.00;98853.19;4344990;32;32599;-70
2023/03/31 11:00:26;;;;;;;4.87;1.83;;;;;;;23.72;35.99;98849.87;4351865;32;170952;-71
2023/03/31 11:03:07;;;;;;;6.30;2.10;;;;;;;23.70;35.98;98841.97;4350419;32;34570;-70
2023/03/31 11:06:10;;;;;;;3.20;1.60;;;;;;;23.71;35.91;98853.69;4349572;32;34038;-71
2023/03/31 11:09:15;;;;;;;4.22;1.60;;;;;;;23.70;35.89;98841.13;4340136;32;34432;-72
2023/03/31 11:11:45;;;;;;;2.65;1.60;;;;;;;23.70;35.73;98841.13;4348155;32;33967;-72
2023/03/31 11:14:16;;;;;;;4.55;1.75;;;;;;;23.67;35.67;98847.91;4346599;32;32949;-74
2023/03/31 11:16:55;;;;;;;4.05;1.77;;;;;;;23.65;35.59;98840.00;4354960;32;34360;-75
2023/03/31 11:19:36;;;;;;;6.32;1.92;;;;;;;23.66;35.52;98830.75;4350108;32;33052;-77
2023/03/31 11:22:13;;;;;;;5.90;1.62;;;;;;;23.66;35.44;98830.75;4360695;32;33574;-77
2023/03/31 11:24:44;;;;;;;5.03;1.70;;;;;;;23.64;35.43;98822.00;4360884;32;33830;-70
2023/03/31 11:27:15;;;;;;;3.80;1.70;;;;;;;23.63;35.44;98803.16;4335472;32;34512;-70
2023/03/31 11:29:58;;;;;;;4.85;2.00;;;;;;;23.64;35.38;98805.66;4351542;32;33675;-70
2023/03/31 11:32:32;;;;;;;3.40;1.70;;;;;;;23.65;35.31;98785.53;4347740;32;33682;-75
2023/03/31 11:35:15;;;;;;;4.25;1.70;;;;;;;23.63;35.37;98779.47;4347174;32;34288;-74
2023/03/31 11:38:12;;;;;;;4.12;1.80;;;;;;;23.66;35.38;98772.72;4335909;32;34363;-72
2023/03/31 11:40:52;;;;;;;4.30;1.80;;;;;;;23.65;35.48;98755.56;4345941;32;33931;-70
2023/03/31 11:43:42;;;;;;;5.80;1.80;;;;;;;23.65;35.59;98752.03;4360736;32;33810;-68
2023/03/31 11:46:21;;;;;;;4.68;1.80;;;;;;;23.66;35.64;98748.22;4346834;32;33911;-70
2023/03/31 11:48:57;;;;;;;4.28;1.85;;;;;;;23.62;35.72;98739.69;4336477;32;34039;-75
2023/03/31 11:51:36;;;;;;;5.25;2.50;;;;;;;23.62;35.87;98739.69;4354012;32;34502;-71
2023/03/31 11:54:10;;;;;;;3.42;1.80;;;;;;;23.60;36.03;98725.53;4348100;32;33659;-74
2023/03/31 11:56:39;;;;;;;3.33;1.87;;;;;;;23.59;36.05;98721.13;4351063;32;34031;-69
2023/03/31 11:59:08;;;;;;;5.07;2.35;;;;;;;23.59;36.04;98723.03;4360798;32;34251;-75
2023/03/31 12:01:43;;;;;;;5.43;2.55;;;;;;;23.58;36.15;98716.75;4361860;32;32848;-72